createdAt,value
2016-10-20T00:00:47.297Z,30.45
2016-10-20T00:02:00.260Z,30.28
2016-10-20T00:03:12.801Z,30.29
2016-10-20T00:04:25.802Z,30.19
2016-10-20T00:05:38.285Z,30.22
2016-10-20T00:06:51.832Z,30.13
2016-10-20T00:08:04.831Z,30.1
2016-10-20T00:09:18.391Z,30.06
2016-10-20T00:10:30.859Z,30.02
2016-10-20T00:11:43.421Z,29.92
2016-10-20T00:12:55.852Z,29.97
2016-10-20T00:14:08.900Z,29.97
2016-10-20T00:15:21.893Z,29.94
2016-10-20T00:16:34.916Z,29.81
2016-10-20T00:17:47.501Z,29.76
2016-10-20T00:18:59.416Z,29.65
2016-10-20T00:20:12.389Z,29.69
2016-10-20T00:21:24.363Z,29.67
2016-10-20T00:22:36.905Z,29.54
2016-10-20T00:23:49.831Z,29.54
2016-10-20T00:25:01.207Z,29.51
2016-10-20T00:26:13.245Z,29.42
2016-10-20T00:27:25.709Z,29.28
2016-10-20T00:28:38.232Z,29.21
2016-10-20T00:29:51.707Z,29.1
2016-10-20T00:31:03.605Z,29.03
2016-10-20T00:32:16.009Z,29.01
2016-10-20T00:33:28.613Z,28.97
2016-10-20T00:34:41.604Z,28.88
2016-10-20T00:35:54.617Z,28.88
2016-10-20T00:37:07.014Z,28.85
2016-10-20T00:38:19.523Z,28.8
2016-10-20T00:39:33.064Z,28.78
2016-10-20T00:40:46.603Z,28.61
2016-10-20T00:41:59.619Z,28.6
2016-10-20T00:43:11.554Z,28.54
2016-10-20T00:44:24.130Z,28.49
2016-10-20T00:45:36.088Z,28.49
2016-10-20T00:46:47.485Z,28.49
2016-10-20T00:48:01.034Z,28.36
2016-10-20T00:49:14.023Z,28.43
2016-10-20T00:50:27.063Z,28.41
2016-10-20T00:51:40.127Z,28.33
2016-10-20T00:52:53.051Z,28.35
2016-10-20T00:54:06.054Z,28.33
2016-10-20T00:55:19.189Z,28.21
2016-10-20T00:56:31.120Z,28.23
2016-10-20T00:57:44.072Z,28.2
2016-10-20T00:58:54.901Z,28.09
2016-10-20T01:00:07.867Z,28.12
2016-10-20T01:01:20.915Z,27.98
2016-10-20T01:02:33.856Z,27.98
2016-10-20T01:03:46.257Z,27.96
2016-10-20T01:04:59.186Z,27.94
2016-10-20T01:06:12.694Z,27.94
2016-10-20T01:07:24.549Z,27.98
2016-10-20T01:08:35.958Z,28.01
2016-10-20T01:09:49.442Z,27.99
2016-10-20T01:11:01.856Z,27.96
2016-10-20T01:12:13.686Z,27.9
2016-10-20T01:13:26.632Z,27.87
2016-10-20T01:14:39.500Z,27.84
2016-10-20T01:15:51.904Z,27.68
2016-10-20T01:17:03.917Z,27.71
2016-10-20T01:18:16.935Z,27.76
2016-10-20T01:19:29.384Z,27.65
2016-10-20T01:20:42.332Z,27.59
2016-10-20T01:21:55.776Z,27.57
2016-10-20T01:23:08.689Z,27.57
2016-10-20T01:24:20.517Z,27.55
2016-10-20T01:25:33.501Z,27.62
2016-10-20T01:26:46.588Z,27.59
2016-10-20T01:27:59.681Z,27.49
2016-10-20T01:29:12.720Z,27.49
2016-10-20T01:30:25.787Z,27.42
2016-10-20T01:31:38.229Z,27.49
2016-10-20T01:32:50.211Z,27.45
2016-10-20T01:34:02.412Z,27.45
2016-10-20T01:35:14.543Z,27.41
2016-10-20T01:36:27.028Z,27.48
2016-10-20T01:37:39.949Z,27.46
2016-10-20T01:38:51.939Z,27.46
2016-10-20T01:40:04.386Z,27.48
2016-10-20T01:41:17.288Z,27.42
2016-10-20T01:42:30.212Z,27.37
2016-10-20T01:43:42.192Z,27.43
2016-10-20T01:44:55.120Z,27.38
2016-10-20T01:46:06.963Z,27.36
2016-10-20T01:47:18.855Z,27.33
2016-10-20T01:48:31.566Z,27.42
2016-10-20T01:49:43.088Z,27.31
2016-10-20T01:50:55.521Z,27.33
2016-10-20T01:52:08.500Z,27.31
2016-10-20T01:53:21.392Z,27.41
2016-10-20T01:54:34.793Z,27.46
2016-10-20T01:55:47.643Z,27.43
2016-10-20T01:57:00.074Z,27.41
2016-10-20T01:58:12.995Z,27.51
2016-10-20T01:59:25.453Z,27.42
2016-10-20T02:00:38.520Z,27.53
2016-10-20T02:01:52.022Z,27.45
2016-10-20T02:03:03.888Z,27.41
2016-10-20T02:04:15.239Z,27.43
2016-10-20T02:05:28.213Z,27.45
2016-10-20T02:06:41.209Z,27.33
2016-10-20T02:07:53.159Z,27.38
2016-10-20T02:09:05.524Z,27.48
2016-10-20T02:10:17.442Z,27.43
2016-10-20T02:11:29.523Z,27.38
2016-10-20T02:12:41.419Z,27.33
2016-10-20T02:13:53.798Z,27.41
2016-10-20T02:15:06.985Z,27.36
2016-10-20T02:16:19.991Z,27.34
2016-10-20T02:17:33.500Z,27.34
2016-10-20T02:18:44.818Z,27.21
2016-10-20T02:19:56.208Z,27.26
2016-10-20T02:21:09.133Z,27.24
2016-10-20T02:22:22.724Z,27.21
2016-10-20T02:23:35.590Z,27.11
2016-10-20T02:24:47.975Z,27.15
2016-10-20T02:26:00.892Z,27.09
2016-10-20T02:27:13.834Z,27.12
2016-10-20T02:28:26.886Z,27.15
2016-10-20T02:29:38.753Z,27.15
2016-10-20T02:30:51.188Z,27.15
2016-10-20T02:32:04.076Z,27.13
2016-10-20T02:33:17.053Z,27.15
2016-10-20T02:34:30.588Z,27.11
2016-10-20T02:35:42.981Z,27.13
2016-10-20T02:36:55.389Z,27.13
2016-10-20T02:38:07.253Z,27.06
2016-10-20T02:39:18.618Z,27.11
2016-10-20T02:40:31.499Z,27
2016-10-20T02:41:44.464Z,27.01
2016-10-20T02:42:57.310Z,26.96
2016-10-20T02:44:10.425Z,26.97
2016-10-20T02:45:22.819Z,27.05
2016-10-20T02:46:36.267Z,26.99
2016-10-20T02:47:48.661Z,26.94
2016-10-20T02:49:01.656Z,26.96
2016-10-20T02:50:14.150Z,26.91
2016-10-20T02:51:27.073Z,26.91
2016-10-20T02:52:40.037Z,26.94
2016-10-20T02:53:52.998Z,26.94
2016-10-20T02:55:06.120Z,26.96
2016-10-20T02:56:18.079Z,26.91
2016-10-20T02:57:30.500Z,26.75
2016-10-20T02:58:42.893Z,26.81
2016-10-20T02:59:54.899Z,26.76
2016-10-20T03:01:08.347Z,26.9
2016-10-20T03:02:20.939Z,26.76
2016-10-20T03:03:33.901Z,26.91
2016-10-20T03:04:46.322Z,26.81
2016-10-20T03:05:59.574Z,26.75
2016-10-20T03:07:11.990Z,26.84
2016-10-20T03:08:24.896Z,26.82
2016-10-20T03:09:37.308Z,26.64
2016-10-20T03:10:49.168Z,26.79
2016-10-20T03:12:01.726Z,26.71
2016-10-20T03:13:14.713Z,26.72
2016-10-20T03:14:27.643Z,26.72
2016-10-20T03:15:40.671Z,26.74
2016-10-20T03:16:53.803Z,26.69
2016-10-20T03:18:05.669Z,26.74
2016-10-20T03:19:16.993Z,26.71
2016-10-20T03:20:29.389Z,26.67
2016-10-20T03:21:42.987Z,26.76
2016-10-20T03:22:55.235Z,26.68
2016-10-20T03:24:07.789Z,26.68
2016-10-20T03:25:20.841Z,26.64
2016-10-20T03:26:33.806Z,26.63
2016-10-20T03:27:46.392Z,26.53
2016-10-20T03:28:58.801Z,26.57
2016-10-20T03:30:11.203Z,26.53
2016-10-20T03:31:24.178Z,26.53
2016-10-20T03:32:36.598Z,26.45
2016-10-20T03:33:49.137Z,26.49
2016-10-20T03:35:02.090Z,26.38
2016-10-20T03:36:14.473Z,26.45
2016-10-20T03:37:26.882Z,26.42
2016-10-20T03:38:38.836Z,26.42
2016-10-20T03:39:50.698Z,26.38
2016-10-20T03:41:02.573Z,26.34
2016-10-20T03:42:15.087Z,26.39
2016-10-20T03:43:27.493Z,26.34
2016-10-20T03:44:39.989Z,26.23
2016-10-20T03:45:51.960Z,26.34
2016-10-20T03:47:04.640Z,26.32
2016-10-20T03:48:17.101Z,26.27
2016-10-20T03:49:30.137Z,26.38
2016-10-20T03:50:43.583Z,26.35
2016-10-20T03:51:56.186Z,26.3
2016-10-20T03:53:07.622Z,26.38
2016-10-20T03:54:19.104Z,26.27
2016-10-20T03:55:31.542Z,26.23
2016-10-20T03:56:43.927Z,26.19
2016-10-20T03:57:56.398Z,26.19
2016-10-20T03:59:08.879Z,26.19
2016-10-20T04:00:20.851Z,26.19
2016-10-20T04:01:33.909Z,26.27
2016-10-20T04:02:46.912Z,26.19
2016-10-20T04:03:59.425Z,26.15
2016-10-20T04:05:10.899Z,26.09
2016-10-20T04:06:24.055Z,26.06
2016-10-20T04:07:37.203Z,26.12
2016-10-20T04:08:50.081Z,26.16
2016-10-20T04:10:03.548Z,26.17
2016-10-20T04:11:15.539Z,26.15
2016-10-20T04:12:27.904Z,26.19
2016-10-20T04:13:40.507Z,26.16
2016-10-20T04:14:53.455Z,26.15
2016-10-20T04:16:06.967Z,26.15
2016-10-20T04:17:20.128Z,26.17
2016-10-20T04:18:32.596Z,26.03
2016-10-20T04:19:45.547Z,26.06
2016-10-20T04:20:58.588Z,26.07
2016-10-20T04:22:12.323Z,26.04
2016-10-20T04:23:24.863Z,26.04
2016-10-20T04:24:37.284Z,26.03
2016-10-20T04:25:49.757Z,26.04
2016-10-20T04:27:03.361Z,26
2016-10-20T04:28:15.824Z,25.99
2016-10-20T04:29:28.431Z,26
2016-10-20T04:30:41.439Z,26.03
2016-10-20T04:31:53.828Z,26.04
2016-10-20T04:33:07.667Z,25.96
2016-10-20T04:34:20.627Z,25.94
2016-10-20T04:35:33.623Z,25.96
2016-10-20T04:36:46.217Z,25.99
2016-10-20T04:37:59.078Z,26.01
2016-10-20T04:39:11.509Z,26.04
2016-10-20T04:40:24.430Z,26.03
2016-10-20T04:41:36.866Z,25.97
2016-10-20T04:42:49.875Z,25.96
2016-10-20T04:44:02.527Z,25.88
2016-10-20T04:45:15.506Z,25.94
2016-10-20T04:46:27.407Z,25.91
2016-10-20T04:47:38.759Z,25.85
2016-10-20T04:48:51.232Z,25.86
2016-10-20T04:50:03.957Z,25.91
2016-10-20T04:51:16.927Z,25.85
2016-10-20T04:52:29.333Z,25.89
2016-10-20T04:53:42.235Z,25.94
2016-10-20T04:54:54.689Z,25.85
2016-10-20T04:56:07.622Z,26.01
2016-10-20T04:57:20.089Z,25.91
2016-10-20T04:58:33.092Z,26.03
2016-10-20T04:59:45.021Z,26.03
2016-10-20T05:00:57.421Z,25.97
2016-10-20T05:02:09.290Z,25.96
2016-10-20T05:03:22.433Z,26.04
2016-10-20T05:04:34.330Z,25.94
2016-10-20T05:05:47.417Z,25.82
2016-10-20T05:06:59.365Z,25.76
2016-10-20T05:08:12.277Z,25.84
2016-10-20T05:09:24.205Z,25.78
2016-10-20T05:10:35.588Z,25.78
2016-10-20T05:11:48.155Z,25.81
2016-10-20T05:13:01.060Z,25.84
2016-10-20T05:14:13.486Z,25.78
2016-10-20T05:15:26.443Z,25.79
2016-10-20T05:16:38.463Z,25.69
2016-10-20T05:17:51.921Z,25.75
2016-10-20T05:19:04.290Z,25.78
2016-10-20T05:20:16.959Z,25.81
2016-10-20T05:21:29.922Z,25.75
2016-10-20T05:22:42.332Z,25.7
2016-10-20T05:23:54.228Z,25.75
2016-10-20T05:25:07.737Z,25.66
2016-10-20T05:26:19.110Z,25.64
2016-10-20T05:27:32.668Z,25.62
2016-10-20T05:28:45.131Z,25.67
2016-10-20T05:29:58.079Z,25.63
2016-10-20T05:31:10.493Z,25.62
2016-10-20T05:32:24.115Z,25.67
2016-10-20T05:33:37.078Z,25.63
2016-10-20T05:34:50.638Z,25.66
2016-10-20T05:36:03.052Z,25.66
2016-10-20T05:37:15.504Z,25.63
2016-10-20T05:38:28.661Z,25.66
2016-10-20T05:39:41.194Z,25.6
2016-10-20T05:40:53.641Z,25.56
2016-10-20T05:42:04.976Z,25.6
2016-10-20T05:43:17.432Z,25.63
2016-10-20T05:44:30.517Z,25.6
2016-10-20T05:45:42.910Z,25.6
2016-10-20T05:46:54.287Z,25.52
2016-10-20T05:48:06.701Z,25.54
2016-10-20T05:49:20.499Z,25.48
2016-10-20T05:50:33.537Z,25.41
2016-10-20T05:51:46.001Z,25.54
2016-10-20T05:52:58.046Z,25.44
2016-10-20T05:54:10.471Z,25.42
2016-10-20T05:55:23.965Z,25.49
2016-10-20T05:56:37.604Z,25.49
2016-10-20T05:57:50.508Z,25.44
2016-10-20T05:59:02.887Z,25.44
2016-10-20T06:00:14.956Z,25.44
2016-10-20T06:01:27.888Z,25.42
2016-10-20T06:02:40.880Z,25.47
2016-10-20T06:03:53.820Z,25.39
2016-10-20T06:05:05.725Z,25.42
2016-10-20T06:06:18.655Z,25.42
2016-10-20T06:07:31.090Z,25.44
2016-10-20T06:08:43.531Z,25.42
2016-10-20T06:09:56.443Z,25.49
2016-10-20T06:11:09.062Z,25.44
2016-10-20T06:12:22.503Z,25.52
2016-10-20T06:13:36.041Z,25.39
2016-10-20T06:14:49.512Z,25.42
2016-10-20T06:16:02.363Z,25.44
2016-10-20T06:17:15.484Z,25.45
2016-10-20T06:18:28.531Z,25.45
2016-10-20T06:19:41.480Z,25.39
2016-10-20T06:20:53.390Z,25.33
2016-10-20T06:22:07.080Z,25.48
2016-10-20T06:23:20.111Z,25.39
2016-10-20T06:24:33.029Z,25.47
2016-10-20T06:25:44.397Z,25.41
2016-10-20T06:26:55.780Z,25.37
2016-10-20T06:28:08.559Z,25.37
2016-10-20T06:29:22.086Z,25.38
2016-10-20T06:30:33.998Z,25.33
2016-10-20T06:31:45.910Z,25.29
2016-10-20T06:32:58.431Z,25.47
2016-10-20T06:34:10.302Z,25.37
2016-10-20T06:35:22.833Z,25.44
2016-10-20T06:36:35.832Z,25.37
2016-10-20T06:37:48.251Z,25.42
2016-10-20T06:39:01.250Z,25.38
2016-10-20T06:40:13.765Z,25.41
2016-10-20T06:41:26.313Z,25.38
2016-10-20T06:42:39.292Z,25.33
2016-10-20T06:43:51.350Z,25.37
2016-10-20T06:45:04.772Z,25.34
2016-10-20T06:46:17.802Z,25.39
2016-10-20T06:47:30.250Z,25.32
2016-10-20T06:48:42.699Z,25.33
2016-10-20T06:49:55.636Z,25.33
2016-10-20T06:51:08.549Z,25.32
2016-10-20T06:52:20.952Z,25.37
2016-10-20T06:53:33.931Z,25.38
2016-10-20T06:54:46.052Z,25.33
2016-10-20T06:55:58.474Z,25.33
2016-10-20T06:57:10.546Z,25.3
2016-10-20T06:58:22.978Z,25.3
2016-10-20T06:59:35.404Z,25.38
2016-10-20T07:00:48.500Z,25.27
2016-10-20T07:02:00.906Z,25.26
2016-10-20T07:03:12.792Z,25.23
2016-10-20T07:04:25.317Z,25.19
2016-10-20T07:05:37.296Z,25.11
2016-10-20T07:06:50.740Z,25.17
2016-10-20T07:08:03.717Z,25.14
2016-10-20T07:09:16.348Z,25.23
2016-10-20T07:10:28.796Z,25.17
2016-10-20T07:11:41.313Z,25.12
2016-10-20T07:12:54.248Z,25.14
2016-10-20T07:14:07.172Z,25.19
2016-10-20T07:15:19.158Z,25.11
2016-10-20T07:16:31.742Z,25.09
2016-10-20T07:17:43.132Z,25.09
2016-10-20T07:18:56.129Z,25.08
2016-10-20T07:20:08.591Z,25.07
2016-10-20T07:21:21.567Z,24.97
2016-10-20T07:22:33.618Z,25
2016-10-20T07:23:44.962Z,24.9
2016-10-20T07:24:58.385Z,24.89
2016-10-20T07:26:11.400Z,24.97
2016-10-20T07:27:25.030Z,24.86
2016-10-20T07:28:38.011Z,24.92
2016-10-20T07:29:50.989Z,24.9
2016-10-20T07:31:03.902Z,24.86
2016-10-20T07:32:16.408Z,24.7
2016-10-20T07:33:28.761Z,24.78
2016-10-20T07:34:41.695Z,24.75
2016-10-20T07:35:54.163Z,24.77
2016-10-20T07:37:07.827Z,24.7
2016-10-20T07:38:20.926Z,24.71
2016-10-20T07:39:33.940Z,24.59
2016-10-20T07:40:46.870Z,24.74
2016-10-20T07:41:59.287Z,24.74
2016-10-20T07:43:12.244Z,24.71
2016-10-20T07:44:25.305Z,24.63
2016-10-20T07:45:37.769Z,24.66
2016-10-20T07:46:49.772Z,24.64
2016-10-20T07:48:02.147Z,24.55
2016-10-20T07:49:14.273Z,24.48
2016-10-20T07:50:27.211Z,24.39
2016-10-20T07:51:39.172Z,24.46
2016-10-20T07:52:51.618Z,24.39
2016-10-20T07:54:04.102Z,24.29
2016-10-20T07:55:16.485Z,24.3
2016-10-20T07:56:29.460Z,24.19
2016-10-20T07:57:41.932Z,24.17
2016-10-20T07:58:54.373Z,24.08
2016-10-20T08:00:07.570Z,24.17
2016-10-20T08:01:19.984Z,24.12
2016-10-20T08:02:32.453Z,24.04
2016-10-20T08:03:43.833Z,24.04
2016-10-20T08:04:55.738Z,24.03
2016-10-20T08:06:08.284Z,24.02
2016-10-20T08:07:21.747Z,24.03
2016-10-20T08:08:34.195Z,24.04
2016-10-20T08:09:47.222Z,24.14
2016-10-20T08:11:00.139Z,24.12
2016-10-20T08:12:13.091Z,24.02
2016-10-20T08:13:26.190Z,24.11
2016-10-20T08:14:39.715Z,24.12
2016-10-20T08:15:52.172Z,24.11
2016-10-20T08:17:05.336Z,24.14
2016-10-20T08:18:17.821Z,24.14
2016-10-20T08:19:31.286Z,24.18
2016-10-20T08:20:43.193Z,24.15
2016-10-20T08:21:56.626Z,24.19
2016-10-20T08:23:09.750Z,24.14
2016-10-20T08:24:21.625Z,24.24
2016-10-20T08:25:34.608Z,24.11
2016-10-20T08:26:47.124Z,24.18
2016-10-20T08:27:59.117Z,24.03
2016-10-20T08:29:11.534Z,23.9
2016-10-20T08:30:22.976Z,23.7
2016-10-20T08:31:34.857Z,23.41
2016-10-20T08:32:46.290Z,23.19
2016-10-20T08:33:58.360Z,23.04
2016-10-20T08:35:11.315Z,22.78
2016-10-20T08:36:24.759Z,22.63
2016-10-20T08:37:37.708Z,22.49
2016-10-20T08:38:49.625Z,22.44
2016-10-20T08:40:01.467Z,22.34
2016-10-20T08:41:13.315Z,22.26
2016-10-20T08:42:24.669Z,22.27
2016-10-20T08:43:37.049Z,22.14
2016-10-20T08:44:49.643Z,21.97
2016-10-20T08:46:01.025Z,21.92
2016-10-20T08:47:13.519Z,21.85
2016-10-20T08:48:25.440Z,21.76
2016-10-20T08:49:38.349Z,21.76
2016-10-20T08:50:51.303Z,21.66
2016-10-20T08:52:03.177Z,21.67
2016-10-20T08:53:15.722Z,21.59
2016-10-20T08:54:28.697Z,21.59
2016-10-20T08:55:41.342Z,21.64
2016-10-20T08:56:54.318Z,21.56
2016-10-20T08:58:07.236Z,21.53
2016-10-20T08:59:19.669Z,21.48
2016-10-20T09:00:31.632Z,21.41
2016-10-20T09:01:44.602Z,21.37
2016-10-20T09:02:57.054Z,21.34
2016-10-20T09:04:09.481Z,21.38
2016-10-20T09:05:22.505Z,21.36
2016-10-20T09:06:33.514Z,21.37
2016-10-20T09:07:46.492Z,21.31
2016-10-20T09:09:00.016Z,21.22
2016-10-20T09:10:12.401Z,21.27
2016-10-20T09:11:25.431Z,21.27
2016-10-20T09:12:36.823Z,21.3
2016-10-20T09:13:48.754Z,21.28
2016-10-20T09:15:01.664Z,21.25
2016-10-20T09:16:14.155Z,21.33
2016-10-20T09:17:27.282Z,21.3
2016-10-20T09:18:40.174Z,21.25
2016-10-20T09:19:53.166Z,21.36
2016-10-20T09:21:05.660Z,21.37
2016-10-20T09:22:17.652Z,21.36
2016-10-20T09:23:30.319Z,21.33
2016-10-20T09:24:43.226Z,21.34
2016-10-20T09:25:56.775Z,21.34
2016-10-20T09:27:09.663Z,21.41
2016-10-20T09:28:21.714Z,21.28
2016-10-20T09:29:34.103Z,21.43
2016-10-20T09:30:47.217Z,21.37
2016-10-20T09:32:00.006Z,21.33
2016-10-20T09:33:11.381Z,21.37
2016-10-20T09:34:23.818Z,21.41
2016-10-20T09:35:36.326Z,21.4
2016-10-20T09:36:49.853Z,21.34
2016-10-20T09:38:02.794Z,21.36
2016-10-20T09:39:15.340Z,21.25
2016-10-20T09:40:27.211Z,21.33
2016-10-20T09:41:39.647Z,21.31
2016-10-20T09:42:51.572Z,21.38
2016-10-20T09:44:04.766Z,21.41
2016-10-20T09:45:17.788Z,21.45
2016-10-20T09:46:30.724Z,21.4
2016-10-20T09:47:44.339Z,21.48
2016-10-20T09:48:56.809Z,21.38
2016-10-20T09:50:09.310Z,21.52
2016-10-20T09:51:22.300Z,21.52
2016-10-20T09:52:48.617Z,21.58
2016-10-20T09:54:21.353Z,21.52
2016-10-20T09:55:49.862Z,21.53
2016-10-20T09:57:17.219Z,21.59
2016-10-20T09:58:47.134Z,21.67
2016-10-20T10:00:14.379Z,21.55
2016-10-20T10:01:31.853Z,21.53
2016-10-20T10:02:43.295Z,21.64
2016-10-20T10:03:55.678Z,21.55
2016-10-20T10:05:08.574Z,21.67
2016-10-20T10:06:21.426Z,21.73
2016-10-20T10:07:34.735Z,21.7
2016-10-20T10:08:47.703Z,21.7
2016-10-20T10:10:01.214Z,21.89
2016-10-20T10:11:13.667Z,21.86
2016-10-20T10:12:27.248Z,21.89
2016-10-20T10:13:40.128Z,21.99
2016-10-20T10:14:53.070Z,22
2016-10-20T10:16:04.925Z,21.92
2016-10-20T10:17:17.923Z,21.96
2016-10-20T10:18:29.926Z,21.94
2016-10-20T10:19:42.894Z,21.97
2016-10-20T10:20:55.290Z,22.02
2016-10-20T10:22:08.842Z,22.05
2016-10-20T10:23:20.292Z,21.99
2016-10-20T10:24:32.111Z,21.97
2016-10-20T10:25:44.568Z,21.97
2016-10-20T10:26:57.547Z,22
2016-10-20T10:28:09.979Z,22.04
2016-10-20T10:29:22.001Z,22.11
2016-10-20T10:30:34.914Z,22.14
2016-10-20T10:31:57.636Z,22.22
2016-10-20T10:33:25.175Z,22.3
2016-10-20T10:34:41.599Z,22.18
2016-10-20T10:35:53.509Z,22.34
2016-10-20T10:37:06.448Z,22.42
2016-10-20T10:38:20.539Z,22.33
2016-10-20T10:39:32.472Z,22.44
2016-10-20T10:40:45.988Z,22.54
2016-10-20T10:41:58.439Z,22.6
2016-10-20T10:43:10.840Z,22.66
2016-10-20T10:44:25.701Z,22.66
2016-10-20T10:45:38.167Z,22.78
2016-10-20T10:46:51.221Z,22.86
2016-10-20T10:48:03.650Z,22.88
2016-10-20T10:49:15.587Z,22.91
2016-10-20T10:50:28.145Z,23.01
2016-10-20T10:51:40.604Z,23.1
2016-10-20T10:52:53.499Z,23.15
2016-10-20T10:54:06.036Z,23.24
2016-10-20T10:55:17.672Z,23.28
2016-10-20T10:56:31.052Z,23.4
2016-10-20T10:57:43.534Z,23.45
2016-10-20T10:58:57.068Z,23.38
2016-10-20T11:00:09.522Z,23.56
2016-10-20T11:01:22.479Z,23.57
2016-10-20T11:02:36.099Z,23.7
2016-10-20T11:03:49.681Z,23.67
2016-10-20T11:05:03.148Z,23.81
2016-10-20T11:06:16.682Z,23.9
2016-10-20T11:07:29.932Z,23.96
2016-10-20T11:08:43.376Z,24.02
2016-10-20T11:09:56.383Z,24.17
2016-10-20T11:11:09.364Z,24.18
2016-10-20T11:12:21.987Z,24.3
2016-10-20T11:13:34.451Z,24.26
2016-10-20T11:14:45.829Z,24.33
2016-10-20T11:15:58.534Z,24.49
2016-10-20T11:17:13.249Z,24.45
2016-10-20T11:18:25.677Z,24.45
2016-10-20T11:19:37.517Z,24.48
2016-10-20T11:20:49.927Z,24.42
2016-10-20T11:22:02.362Z,24.55
2016-10-20T11:23:14.308Z,24.64
2016-10-20T11:24:26.529Z,24.66
2016-10-20T11:25:42.898Z,24.71
2016-10-20T11:27:12.894Z,24.89
2016-10-20T11:28:40.680Z,24.9
2016-10-20T11:29:53.171Z,24.9
2016-10-20T11:31:06.635Z,25.05
2016-10-20T11:32:19.792Z,25
2016-10-20T11:33:33.370Z,25.14
2016-10-20T11:34:46.330Z,25.11
2016-10-20T11:35:59.341Z,25.23
2016-10-20T11:37:12.282Z,25.29
2016-10-20T11:38:24.849Z,25.32
2016-10-20T11:39:37.353Z,25.41
2016-10-20T11:40:50.881Z,25.47
2016-10-20T11:42:03.321Z,25.56
2016-10-20T11:43:16.686Z,25.62
2016-10-20T11:44:29.843Z,25.71
2016-10-20T11:45:43.379Z,25.76
2016-10-20T11:46:56.332Z,25.85
2016-10-20T11:48:08.754Z,25.86
2016-10-20T11:49:20.129Z,25.99
2016-10-20T11:50:32.584Z,26.07
2016-10-20T11:51:44.485Z,26.11
2016-10-20T11:52:57.448Z,26.19
2016-10-20T11:54:10.051Z,26.22
2016-10-20T11:55:23.061Z,26.23
2016-10-20T11:56:35.477Z,26.35
2016-10-20T11:57:48.484Z,26.41
2016-10-20T11:59:01.012Z,26.44
2016-10-20T12:00:13.958Z,26.5
2016-10-20T12:01:26.364Z,26.47
2016-10-20T12:02:39.395Z,26.5
2016-10-20T12:03:51.923Z,26.5
2016-10-20T12:05:05.175Z,26.61
2016-10-20T12:06:17.575Z,26.74
2016-10-20T12:07:31.161Z,26.69
2016-10-20T12:08:44.186Z,26.72
2016-10-20T12:09:57.098Z,26.86
2016-10-20T12:11:10.080Z,27.01
2016-10-20T12:12:22.569Z,27.04
2016-10-20T12:13:35.221Z,27.05
2016-10-20T12:14:48.167Z,27.16
2016-10-20T12:16:01.291Z,27.21
2016-10-20T12:17:13.771Z,27.21
2016-10-20T12:18:25.679Z,27.38
2016-10-20T12:19:38.703Z,27.41
2016-10-20T12:20:51.114Z,27.48
2016-10-20T12:22:04.443Z,27.57
2016-10-20T12:23:16.539Z,27.66
2016-10-20T12:24:29.040Z,27.74
2016-10-20T12:25:41.442Z,27.81
2016-10-20T12:26:56.553Z,27.84
2016-10-20T12:28:09.593Z,27.93
2016-10-20T12:29:22.611Z,27.98
2016-10-20T12:30:35.124Z,28.03
2016-10-20T12:31:48.291Z,28.12
2016-10-20T12:33:00.631Z,28.18
2016-10-20T12:34:13.628Z,28.18
2016-10-20T12:35:26.688Z,28.3
2016-10-20T12:36:39.988Z,28.41
2016-10-20T12:37:58.681Z,28.43
2016-10-20T12:39:15.868Z,28.48
2016-10-20T12:40:32.212Z,28.48
2016-10-20T12:41:46.100Z,28.55
2016-10-20T12:42:59.037Z,28.53
2016-10-20T12:44:12.013Z,28.48
2016-10-20T12:45:24.513Z,28.55
2016-10-20T12:46:36.969Z,28.58
2016-10-20T12:47:49.574Z,28.61
2016-10-20T12:49:02.476Z,28.76
2016-10-20T12:50:14.915Z,28.9
2016-10-20T12:51:27.293Z,28.88
2016-10-20T12:52:39.720Z,28.97
2016-10-20T12:53:53.518Z,29.02
2016-10-20T12:55:06.008Z,29.05
2016-10-20T12:56:18.140Z,29.15
2016-10-20T12:57:31.135Z,29.26
2016-10-20T12:58:44.558Z,29.33
2016-10-20T12:59:57.780Z,29.4
2016-10-20T13:01:10.774Z,29.55
2016-10-20T13:02:56.332Z,29.73
2016-10-20T13:04:17.672Z,29.77
2016-10-20T13:05:36.812Z,29.73
2016-10-20T13:06:49.888Z,29.65
2016-10-20T13:08:04.260Z,29.65
2016-10-20T13:09:18.314Z,29.76
2016-10-20T13:10:30.831Z,29.79
2016-10-20T13:11:44.845Z,29.85
2016-10-20T13:12:59.631Z,29.91
2016-10-20T13:14:13.322Z,30.02
2016-10-20T13:15:25.488Z,30.04
2016-10-20T13:16:38.129Z,30.29
2016-10-20T13:17:51.443Z,30.32
2016-10-20T13:19:04.706Z,30.25
2016-10-20T13:20:20.698Z,30.29
2016-10-20T13:21:35.638Z,30.32
2016-10-20T13:22:48.358Z,30.32
2016-10-20T13:24:01.449Z,30.19
2016-10-20T13:25:13.967Z,30.22
2016-10-20T13:26:26.973Z,30.34
2016-10-20T13:27:39.869Z,30.39
2016-10-20T13:28:52.845Z,30.49
2016-10-20T13:30:05.931Z,30.6
2016-10-20T13:31:19.605Z,30.67
2016-10-20T13:32:31.559Z,30.89
2016-10-20T13:33:45.118Z,30.96
2016-10-20T13:34:57.531Z,30.93
2016-10-20T13:36:11.147Z,30.99
2016-10-20T13:37:24.266Z,31.01
2016-10-20T13:38:37.220Z,31.01
2016-10-20T13:39:50.150Z,31.13
2016-10-20T13:41:03.329Z,31.31
2016-10-20T13:42:16.536Z,31.23
2016-10-20T13:43:29.622Z,31.36
2016-10-20T13:44:42.541Z,31.36
2016-10-20T13:45:55.075Z,31.34
2016-10-20T13:47:07.532Z,31.43
2016-10-20T13:48:19.589Z,31.49
2016-10-20T13:49:32.048Z,31.55
2016-10-20T13:50:44.534Z,31.63
2016-10-20T13:51:56.950Z,31.67
2016-10-20T13:53:09.062Z,31.82
2016-10-20T13:54:21.092Z,31.82
2016-10-20T13:55:34.014Z,31.75
2016-10-20T13:56:46.458Z,31.78
2016-10-20T13:57:59.428Z,31.78
2016-10-20T13:59:11.545Z,31.9
2016-10-20T14:00:24.500Z,31.88
2016-10-20T14:01:36.969Z,32.05
2016-10-20T14:02:48.910Z,32.23
2016-10-20T14:04:01.441Z,32.24
2016-10-20T14:05:14.872Z,32.19
2016-10-20T14:06:27.294Z,32.39
2016-10-20T14:07:40.765Z,32.45
2016-10-20T14:08:53.226Z,32.46
2016-10-20T14:10:05.668Z,32.74
2016-10-20T14:11:18.145Z,32.94
2016-10-20T14:12:30.564Z,33.02
2016-10-20T14:13:44.258Z,33.12
2016-10-20T14:14:57.077Z,33.2
2016-10-20T14:16:10.056Z,33.29
2016-10-20T14:17:23.518Z,33.39
2016-10-20T14:18:35.434Z,33.52
2016-10-20T14:19:47.384Z,33.62
2016-10-20T14:21:00.388Z,33.77
2016-10-20T14:22:13.347Z,34.05
2016-10-20T14:23:25.812Z,34.18
2016-10-20T14:24:38.816Z,34.37
2016-10-20T14:25:50.965Z,34.86
2016-10-20T14:27:02.891Z,35.21
2016-10-20T14:28:15.413Z,35.53
2016-10-20T14:29:27.978Z,35.69
2016-10-20T14:30:39.918Z,36.02
2016-10-20T14:31:53.053Z,36.24
2016-10-20T14:33:06.096Z,36.39
2016-10-20T14:34:18.681Z,36.53
2016-10-20T14:35:32.033Z,36.89
2016-10-20T14:36:45.505Z,37.15
2016-10-20T14:38:04.676Z,37.56
2016-10-20T14:39:35.563Z,37.96
2016-10-20T14:41:00.664Z,38.27
2016-10-20T14:42:18.272Z,38.8
2016-10-20T14:43:31.325Z,39.31
2016-10-20T14:44:42.732Z,39.81
2016-10-20T14:45:55.966Z,40.15
2016-10-20T14:47:09.587Z,40.3
2016-10-20T14:48:21.549Z,40.5
2016-10-20T14:49:33.537Z,40.79
2016-10-20T14:50:45.507Z,41.11
2016-10-20T14:51:58.472Z,41.22
2016-10-20T14:53:11.649Z,41
2016-10-20T14:54:25.184Z,40.97
2016-10-20T14:55:38.291Z,41.12
2016-10-20T14:56:51.575Z,41.15
2016-10-20T14:58:04.227Z,41.37
2016-10-20T14:59:16.656Z,41.69
2016-10-20T15:00:29.140Z,41.72
2016-10-20T15:01:41.737Z,41.83
2016-10-20T15:02:56.481Z,41.96
2016-10-20T15:04:12.040Z,42.1
2016-10-20T15:05:25.282Z,42.54
2016-10-20T15:06:38.477Z,43.07
2016-10-20T15:07:50.456Z,43.3
2016-10-20T15:09:03.409Z,43.69
2016-10-20T15:10:14.920Z,43.96
2016-10-20T15:11:27.381Z,44.11
2016-10-20T15:12:39.883Z,44.58
2016-10-20T15:13:53.751Z,44.9
2016-10-20T15:15:06.334Z,44.84
2016-10-20T15:16:18.790Z,44.58
2016-10-20T15:17:31.884Z,44.55
2016-10-20T15:18:44.302Z,44.92
2016-10-20T15:19:56.260Z,45.37
2016-10-20T15:21:09.822Z,45.88
2016-10-20T15:22:22.282Z,46.2
2016-10-20T15:23:34.225Z,46.69
2016-10-20T15:24:46.707Z,46.93
2016-10-20T15:26:00.018Z,47.14
2016-10-20T15:27:13.189Z,47.15
2016-10-20T15:28:26.006Z,47.34
2016-10-20T15:29:38.520Z,47.68
2016-10-20T15:30:50.465Z,47.8
2016-10-20T15:52:52.525Z,50.74
2016-10-20T15:54:05.521Z,50.82
2016-10-20T15:55:17.901Z,51.09
2016-10-20T15:56:30.371Z,51.26
2016-10-20T15:57:43.301Z,51.66
2016-10-20T15:58:55.397Z,51.99
2016-10-20T16:00:07.351Z,51.98
2016-10-20T16:01:20.439Z,51.77
2016-10-20T16:02:33.429Z,51.74
2016-10-20T16:03:46.074Z,52.05
2016-10-20T16:04:59.045Z,52.36